createdAt,value
2022-09-23T00:01:02.005Z,86.34
2022-09-23T00:03:31.090Z,85.86
2022-09-23T00:06:02.731Z,85.92
2022-09-23T00:08:30.388Z,86.46
2022-09-23T00:10:57.312Z,87.65
2022-09-23T00:13:27.342Z,86.95
2022-09-23T00:15:53.650Z,86.55
2022-09-23T00:18:20.731Z,86.97
2022-09-23T00:20:48.228Z,86.86
2022-09-23T00:23:14.728Z,86.10
2022-09-23T00:25:41.036Z,87.02
2022-09-23T00:28:07.968Z,86.99
2022-09-23T00:30:34.363Z,85.70
2022-09-23T00:33:00.787Z,87.24
2022-09-23T00:35:27.579Z,86.88
2022-09-23T00:37:53.926Z,87.06
2022-09-23T00:40:20.773Z,87.60
2022-09-23T00:42:50.194Z,87.39
2022-09-23T00:45:17.029Z,87.47
2022-09-23T00:48:01.753Z,86.78
2022-09-23T00:50:43.893Z,87.25
2022-09-23T00:53:19.635Z,87.09
2022-09-23T00:55:53.312Z,86.96
2022-09-23T00:58:23.941Z,87.54
2022-09-23T01:00:50.491Z,87.10
2022-09-23T01:03:19.443Z,86.06
2022-09-23T01:05:46.873Z,86.88
2022-09-23T01:08:14.891Z,86.27
2022-09-23T01:11:02.360Z,86.61
2022-09-23T01:13:47.388Z,86.82
2022-09-23T01:16:16.824Z,86.25
2022-09-23T01:19:08.828Z,86.12
2022-09-23T01:21:44.847Z,87.18
2022-09-23T01:24:29.864Z,87.63
2022-09-23T01:27:08.472Z,87.37
2022-09-23T01:30:06.002Z,87.19
2022-09-23T01:32:43.661Z,86.67
2022-09-23T01:35:25.570Z,86.59
2022-09-23T01:38:03.444Z,86.82
2022-09-23T01:40:45.775Z,87.03
2022-09-23T01:43:21.679Z,86.22
2022-09-23T01:45:53.536Z,86.66
2022-09-23T01:48:35.805Z,87.13
2022-09-23T01:51:12.068Z,86.21
2022-09-23T01:53:53.334Z,86.96
2022-09-23T01:56:29.250Z,87.44
2022-09-23T01:58:55.524Z,87.05
2022-09-23T02:01:30.981Z,87.34
2022-09-23T02:04:05.884Z,88.31
2022-09-23T02:06:42.220Z,87.40
2022-09-23T02:09:14.302Z,87.47
2022-09-23T02:11:45.499Z,87.10
2022-09-23T02:14:19.245Z,87.68
2022-09-23T02:16:51.365Z,86.98
2022-09-23T02:19:50.399Z,87.33
2022-09-23T02:22:46.961Z,87.50
2022-09-23T02:25:13.387Z,87.13
2022-09-23T02:27:49.031Z,87.46
2022-09-23T02:30:20.020Z,87.33
2022-09-23T02:32:55.014Z,87.36
2022-09-23T02:35:32.751Z,87.26
2022-09-23T02:38:02.941Z,87.96
2022-09-23T02:40:51.383Z,87.13
2022-09-23T02:43:43.842Z,87.14
2022-09-23T02:46:10.745Z,87.38
2022-09-23T02:48:53.733Z,87.30
2022-09-23T02:51:20.560Z,86.77
2022-09-23T02:53:47.712Z,87.06
2022-09-23T02:56:20.096Z,87.13
2022-09-23T02:58:52.255Z,87.52
2022-09-23T03:01:45.108Z,87.55
2022-09-23T03:04:26.816Z,87.21
2022-09-23T03:07:01.312Z,86.81
2022-09-23T03:09:45.825Z,86.75
2022-09-23T03:12:36.414Z,86.34
2022-09-23T03:15:27.816Z,87.08
2022-09-23T03:18:08.163Z,86.94
2022-09-23T03:20:45.062Z,87.15
2022-09-23T03:23:15.436Z,87.32
2022-09-23T03:25:45.729Z,86.72
2022-09-23T03:28:14.908Z,86.88
2022-09-23T03:30:43.815Z,86.99
2022-09-23T03:33:15.415Z,86.64
2022-09-23T03:36:09.223Z,87.32
2022-09-23T03:38:39.932Z,87.54
2022-09-23T03:41:11.611Z,87.15
2022-09-23T03:43:39.484Z,87.44
2022-09-23T03:46:08.112Z,87.17
2022-09-23T03:48:35.079Z,87.37
2022-09-23T03:51:22.030Z,87.08
2022-09-23T03:53:49.314Z,87.39
2022-09-23T03:56:16.096Z,87.30
2022-09-23T03:58:43.927Z,87.07
2022-09-23T04:01:10.946Z,86.49
2022-09-23T04:03:37.300Z,87.04
2022-09-23T04:06:03.792Z,87.05
2022-09-23T04:08:30.526Z,86.35
2022-09-23T04:11:01.508Z,86.21
2022-09-23T04:13:29.296Z,86.48
2022-09-23T04:15:56.246Z,85.95
2022-09-23T04:18:23.511Z,86.22
2022-09-23T04:20:50.006Z,86.27
2022-09-23T04:23:16.876Z,86.34
2022-09-23T04:25:49.747Z,86.74
2022-09-23T04:28:16.229Z,86.57
2022-09-23T04:30:43.704Z,86.04
2022-09-23T04:33:11.690Z,86.11
2022-09-23T04:35:40.285Z,86.47
2022-09-23T04:38:07.273Z,86.76
2022-09-23T04:40:35.790Z,86.91
2022-09-23T04:43:02.208Z,86.51
2022-09-23T04:45:30.622Z,86.51
2022-09-23T04:47:58.304Z,86.90
2022-09-23T04:50:26.069Z,86.82
2022-09-23T04:52:54.094Z,87.20
2022-09-23T04:55:21.769Z,86.82
2022-09-23T04:57:48.336Z,86.75
2022-09-23T05:00:18.168Z,86.13
2022-09-23T05:02:46.271Z,86.87
2022-09-23T05:05:13.734Z,86.80
2022-09-23T05:07:40.694Z,86.51
2022-09-23T05:10:07.707Z,86.05
2022-09-23T05:12:34.083Z,86.34
2022-09-23T05:15:00.809Z,86.46
2022-09-23T05:17:31.303Z,87.26
2022-09-23T05:19:59.261Z,87.06
2022-09-23T05:22:26.617Z,87.40
2022-09-23T05:24:53.982Z,87.15
2022-09-23T05:27:21.600Z,86.65
2022-09-23T05:29:49.186Z,87.17
2022-09-23T05:32:15.648Z,86.98
2022-09-23T05:34:42.295Z,87.03
2022-09-23T05:37:08.768Z,86.94
2022-09-23T05:39:35.229Z,86.87
2022-09-23T05:42:02.049Z,86.86
2022-09-23T05:44:29.143Z,86.67
2022-09-23T05:46:55.568Z,85.89
2022-09-23T05:49:33.066Z,85.58
2022-09-23T05:52:08.566Z,85.73
2022-09-23T05:54:35.776Z,86.35
2022-09-23T05:57:05.016Z,86.62
2022-09-23T05:59:32.068Z,86.57
2022-09-23T06:01:58.998Z,85.96
2022-09-23T06:04:26.241Z,86.38
2022-09-23T06:06:53.600Z,86.08
2022-09-23T06:09:19.970Z,85.97
2022-09-23T06:11:46.709Z,86.76
2022-09-23T06:14:15.026Z,85.58
2022-09-23T06:16:41.475Z,86.78
2022-09-23T06:19:07.795Z,86.09
2022-09-23T06:21:37.594Z,85.63
2022-09-23T06:24:05.102Z,85.58
2022-09-23T06:26:34.568Z,85.42
2022-09-23T06:29:05.275Z,84.87
2022-09-23T06:31:31.933Z,79.53
2022-09-23T06:34:10.040Z,80.57
2022-09-23T06:36:45.524Z,75.86
2022-09-23T06:39:14.337Z,73.53
2022-09-23T06:41:41.006Z,69.23
2022-09-23T06:44:08.081Z,73.44
2022-09-23T06:46:36.769Z,65.31
2022-09-23T06:49:03.697Z,65.99
2022-09-23T06:51:30.448Z,68.83
2022-09-23T06:53:56.777Z,60.21
2022-09-23T06:56:23.629Z,61.33
2022-09-23T06:58:52.606Z,60.85
2022-09-23T07:01:19.734Z,57.35
2022-09-23T07:03:50.461Z,56.28
2022-09-23T07:06:17.338Z,55.92
2022-09-23T07:08:46.791Z,54.11
2022-09-23T07:11:14.439Z,52.51
2022-09-23T07:13:42.315Z,50.96
2022-09-23T07:16:09.923Z,49.22
2022-09-23T07:18:37.553Z,48.50
2022-09-23T07:21:10.013Z,45.86
2022-09-23T07:23:38.164Z,45.71
2022-09-23T07:26:05.159Z,45.47
2022-09-23T07:28:32.140Z,45.61
2022-09-23T07:31:04.004Z,47.14
2022-09-23T07:33:33.094Z,54.08
2022-09-23T07:36:07.755Z,56.91
2022-09-23T07:38:34.911Z,61.09
2022-09-23T07:41:04.469Z,57.79
2022-09-23T07:43:34.160Z,61.74
2022-09-23T07:46:13.199Z,63.62
2022-09-23T07:48:39.944Z,62.14
2022-09-23T07:51:21.533Z,62.47
2022-09-23T07:53:49.746Z,63.85
2022-09-23T07:56:19.318Z,64.14
2022-09-23T07:59:01.682Z,64.09
2022-09-23T08:01:31.932Z,65.48
2022-09-23T08:04:00.540Z,66.42
2022-09-23T08:06:26.855Z,63.15
2022-09-23T08:08:53.675Z,61.27
2022-09-23T08:11:20.544Z,61.87
2022-09-23T08:13:48.415Z,61.71
2022-09-23T08:16:14.820Z,61.26
2022-09-23T08:18:45.034Z,60.41
2022-09-23T08:21:11.856Z,62.62
2022-09-23T08:23:38.503Z,61.99
2022-09-23T08:26:09.859Z,62.49
2022-09-23T08:28:38.883Z,57.52
2022-09-23T08:31:05.378Z,55.76
2022-09-23T08:33:31.910Z,60.18
2022-09-23T08:36:01.819Z,64.45
2022-09-23T08:38:29.090Z,60.50
2022-09-23T08:41:16.269Z,61.36
2022-09-23T08:43:48.533Z,63.57
2022-09-23T08:46:22.197Z,58.46
2022-09-23T08:48:49.796Z,60.18
2022-09-23T08:51:25.747Z,58.37
2022-09-23T08:53:52.326Z,58.05
2022-09-23T08:56:23.610Z,56.08
2022-09-23T08:59:09.739Z,56.65
2022-09-23T09:01:47.959Z,53.13
2022-09-23T09:04:16.312Z,58.92
2022-09-23T09:06:53.637Z,60.87
2022-09-23T09:09:36.815Z,58.38
2022-09-23T09:12:13.831Z,57.76
2022-09-23T09:15:14.760Z,54.45
2022-09-23T09:18:18.098Z,53.19
2022-09-23T09:21:13.699Z,51.02
2022-09-23T09:23:46.868Z,45.90
2022-09-23T09:26:21.558Z,47.39
2022-09-23T09:29:23.391Z,49.37
2022-09-23T09:31:50.877Z,53.48
2022-09-23T09:34:41.429Z,56.48
2022-09-23T09:37:33.976Z,58.01
2022-09-23T09:40:00.719Z,59.79
2022-09-23T09:42:40.858Z,59.38
2022-09-23T09:45:45.224Z,59.51
2022-09-23T09:48:17.562Z,57.64
2022-09-23T09:50:50.740Z,57.25
2022-09-23T09:53:22.254Z,56.56
2022-09-23T09:56:05.603Z,58.64
2022-09-23T09:58:51.462Z,59.34
2022-09-23T10:01:29.984Z,59.88
2022-09-23T10:03:59.561Z,61.02
2022-09-23T10:06:35.125Z,60.66
2022-09-23T10:09:04.395Z,58.69
2022-09-23T10:11:32.246Z,58.52
2022-09-23T10:14:13.705Z,60.44
2022-09-23T10:16:41.659Z,60.86
2022-09-23T10:19:17.121Z,62.36
2022-09-23T10:21:43.811Z,57.73
2022-09-23T10:24:22.871Z,57.79
2022-09-23T10:27:08.496Z,59.54
2022-09-23T10:29:40.920Z,56.67
2022-09-23T10:32:36.318Z,60.16
2022-09-23T10:35:14.947Z,60.33
2022-09-23T10:37:44.920Z,61.33
2022-09-23T10:40:48.332Z,62.20
2022-09-23T10:44:02.289Z,57.21
2022-09-23T10:46:41.754Z,56.29
2022-09-23T10:49:39.175Z,57.06
2022-09-23T10:52:26.271Z,57.17
2022-09-23T10:55:07.603Z,57.76
2022-09-23T10:57:46.341Z,59.38
2022-09-23T11:00:38.115Z,56.56
2022-09-23T11:03:34.729Z,54.11
2022-09-23T11:06:29.086Z,54.14
2022-09-23T11:09:04.526Z,50.52
2022-09-23T11:11:40.554Z,54.00
2022-09-23T11:14:19.650Z,52.64
2022-09-23T11:16:55.363Z,58.14
2022-09-23T11:19:54.042Z,59.50
2022-09-23T11:22:53.565Z,55.21
2022-09-23T11:25:37.296Z,53.47
2022-09-23T11:28:30.324Z,54.77
2022-09-23T11:31:06.309Z,57.06
2022-09-23T11:33:49.511Z,54.96
2022-09-23T11:36:26.703Z,54.62
2022-09-23T11:38:56.572Z,55.38
2022-09-23T11:41:29.762Z,53.67
2022-09-23T11:44:20.391Z,52.42
2022-09-23T11:46:54.778Z,52.55
2022-09-23T11:49:55.156Z,50.88
2022-09-23T11:52:28.034Z,52.92
2022-09-23T11:55:08.122Z,53.19
2022-09-23T11:57:54.352Z,55.52
2022-09-23T12:00:21.936Z,54.28
2022-09-23T12:03:13.606Z,49.97
2022-09-23T12:05:45.747Z,51.67
2022-09-23T12:08:23.603Z,49.53
2022-09-23T12:11:03.628Z,52.18
2022-09-23T12:13:38.822Z,51.58
2022-09-23T12:16:05.202Z,51.80
2022-09-23T12:18:56.303Z,51.31
2022-09-23T12:21:51.543Z,50.76
2022-09-23T12:24:27.464Z,54.26
2022-09-23T12:27:00.450Z,54.27
2022-09-23T12:29:32.313Z,54.41
2022-09-23T12:31:59.408Z,56.07
2022-09-23T12:34:44.423Z,55.51
2022-09-23T12:37:10.746Z,52.80
2022-09-23T12:39:38.677Z,52.87
2022-09-23T12:42:14.630Z,51.83
2022-09-23T12:44:47.191Z,53.40
2022-09-23T12:47:25.792Z,52.72
2022-09-23T12:50:01.070Z,54.52
2022-09-23T12:52:31.776Z,55.08
2022-09-23T12:55:26.751Z,54.00
2022-09-23T12:57:53.117Z,54.95
2022-09-23T13:00:25.893Z,55.59
2022-09-23T13:03:15.839Z,54.89
2022-09-23T13:06:06.146Z,55.17
2022-09-23T13:08:37.327Z,55.49
2022-09-23T13:11:08.398Z,52.71
2022-09-23T13:13:41.453Z,52.34
2022-09-23T13:16:20.418Z,54.03
2022-09-23T13:18:54.736Z,54.26
2022-09-23T13:21:40.146Z,53.89
2022-09-23T13:24:12.859Z,54.38
2022-09-23T13:26:45.780Z,53.25
2022-09-23T13:29:30.168Z,53.57
2022-09-23T13:31:58.200Z,52.24
2022-09-23T13:34:30.406Z,51.41
2022-09-23T13:36:56.728Z,51.03
2022-09-23T13:39:27.918Z,50.58
2022-09-23T13:42:00.940Z,50.34
2022-09-23T13:44:28.930Z,52.41
2022-09-23T13:46:59.666Z,52.16
2022-09-23T13:49:35.227Z,51.56
2022-09-23T13:52:03.724Z,53.22
2022-09-23T13:54:33.330Z,52.25
2022-09-23T13:57:00.612Z,52.59
2022-09-23T13:59:29.379Z,52.99
2022-09-23T14:02:28.952Z,52.94
2022-09-23T14:04:58.811Z,53.77
2022-09-23T14:07:26.106Z,53.05
2022-09-23T14:09:55.427Z,52.56
2022-09-23T14:12:22.640Z,53.06
2022-09-23T14:14:51.729Z,52.41
2022-09-23T14:17:23.132Z,51.94
2022-09-23T14:19:50.622Z,51.90
2022-09-23T14:22:26.530Z,51.87
2022-09-23T14:24:54.409Z,51.09
2022-09-23T14:27:28.962Z,50.97
2022-09-23T14:29:56.334Z,52.16
2022-09-23T14:32:26.751Z,50.71
2022-09-23T14:35:05.934Z,50.90
2022-09-23T14:37:59.453Z,51.78
2022-09-23T14:40:51.063Z,51.41
2022-09-23T14:43:23.510Z,51.99
2022-09-23T14:45:56.431Z,51.88
2022-09-23T14:48:24.447Z,52.48
2022-09-23T14:50:57.252Z,55.07
2022-09-23T14:53:43.324Z,54.74
2022-09-23T14:56:16.160Z,56.72
2022-09-23T14:58:55.359Z,56.56
2022-09-23T15:01:30.846Z,56.52
2022-09-23T15:04:13.504Z,56.12
2022-09-23T15:06:46.743Z,55.46
2022-09-23T15:09:20.869Z,56.08
2022-09-23T15:11:47.402Z,56.38
2022-09-23T15:14:36.801Z,57.69
2022-09-23T15:17:04.090Z,58.73
2022-09-23T15:19:31.485Z,57.11
2022-09-23T15:21:58.212Z,55.82
2022-09-23T15:24:44.748Z,54.35
2022-09-23T15:27:25.551Z,54.15
2022-09-23T15:29:53.296Z,53.80
2022-09-23T15:32:21.521Z,53.79
2022-09-23T15:34:51.223Z,53.00
2022-09-23T15:37:18.120Z,54.39
2022-09-23T15:39:45.167Z,53.15
2022-09-23T15:42:11.758Z,52.97
2022-09-23T15:44:38.199Z,53.00
2022-09-23T15:47:05.260Z,53.25
2022-09-23T15:49:33.787Z,53.42
2022-09-23T15:52:01.192Z,52.63
2022-09-23T15:54:28.954Z,52.75
2022-09-23T15:56:56.612Z,53.23
2022-09-23T15:59:24.026Z,54.49
2022-09-23T16:01:52.373Z,55.20
2022-09-23T16:04:19.000Z,57.21
2022-09-23T16:06:47.949Z,57.08
2022-09-23T16:09:16.132Z,57.86
2022-09-23T16:11:48.298Z,57.18
2022-09-23T16:14:17.569Z,59.04
2022-09-23T16:16:45.234Z,59.33
2022-09-23T16:19:12.752Z,61.26
2022-09-23T16:21:40.827Z,62.62
2022-09-23T16:24:18.845Z,66.84
2022-09-23T16:26:47.809Z,69.50
2022-09-23T16:29:14.617Z,71.10
2022-09-23T16:31:41.315Z,71.66
2022-09-23T16:34:08.315Z,70.33
2022-09-23T16:36:40.961Z,70.45
2022-09-23T16:39:10.788Z,70.67
2022-09-23T16:41:37.741Z,71.56
2022-09-23T16:44:07.304Z,71.87
2022-09-23T16:46:34.753Z,72.83
2022-09-23T16:49:01.809Z,72.83
2022-09-23T16:51:31.566Z,72.95
2022-09-23T16:53:59.328Z,72.70
2022-09-23T16:56:29.102Z,73.69
2022-09-23T16:58:56.624Z,73.62
2022-09-23T17:01:44.220Z,74.38
2022-09-23T17:04:11.811Z,75.63
2022-09-23T17:06:52.253Z,76.26
2022-09-23T17:09:24.723Z,76.57
2022-09-23T17:11:58.631Z,76.86
2022-09-23T17:14:25.122Z,76.76
2022-09-23T17:16:51.439Z,77.29
2022-09-23T17:19:18.280Z,78.50
2022-09-23T17:21:44.646Z,78.57
2022-09-23T17:24:11.400Z,78.70
2022-09-23T17:26:38.523Z,78.85
2022-09-23T17:29:05.512Z,79.92
2022-09-23T17:31:31.948Z,80.06
2022-09-23T17:33:58.955Z,79.66
2022-09-23T17:36:25.288Z,79.52
2022-09-23T17:38:53.365Z,80.43
2022-09-23T17:41:21.161Z,80.80
2022-09-23T17:43:47.653Z,81.06
2022-09-23T17:46:17.941Z,81.76
2022-09-23T17:48:45.731Z,82.13
2022-09-23T17:51:16.003Z,81.20
2022-09-23T17:53:45.239Z,81.82
2022-09-23T17:56:15.776Z,81.46
2022-09-23T17:58:42.980Z,81.36
2022-09-23T18:01:15.426Z,82.57
2022-09-23T18:03:45.510Z,82.48
2022-09-23T18:06:14.407Z,82.22
2022-09-23T18:08:42.482Z,82.82
2022-09-23T18:11:23.670Z,82.94
2022-09-23T18:13:55.138Z,83.35
2022-09-23T18:16:26.036Z,83.60
2022-09-23T18:19:00.954Z,83.60
2022-09-23T18:21:31.237Z,82.90
2022-09-23T18:24:15.695Z,82.91
2022-09-23T18:26:46.065Z,83.31
2022-09-23T18:29:12.546Z,83.40
2022-09-23T18:31:39.254Z,83.21
2022-09-23T18:34:08.200Z,82.72
2022-09-23T18:36:34.853Z,82.88
2022-09-23T18:39:01.425Z,83.24
2022-09-23T18:41:28.307Z,83.00
2022-09-23T18:43:54.851Z,83.36
2022-09-23T18:46:26.964Z,83.98
2022-09-23T18:49:11.917Z,84.13
2022-09-23T18:51:57.038Z,84.65
2022-09-23T18:54:24.032Z,83.78
2022-09-23T18:56:53.408Z,84.18
2022-09-23T18:59:23.714Z,84.49
2022-09-23T19:01:50.640Z,84.64
2022-09-23T19:04:19.650Z,84.26
2022-09-23T19:06:46.495Z,84.05
2022-09-23T19:09:15.671Z,83.83
2022-09-23T19:11:42.832Z,83.92
2022-09-23T19:14:11.408Z,83.86
2022-09-23T19:16:39.731Z,84.70
2022-09-23T19:19:06.560Z,85.28
2022-09-23T19:21:33.339Z,85.14
2022-09-23T19:24:05.643Z,85.61
2022-09-23T19:26:35.958Z,85.44
2022-09-23T19:29:04.202Z,85.75
2022-09-23T19:31:34.116Z,85.76
2022-09-23T19:34:04.365Z,86.01
2022-09-23T19:36:34.056Z,86.15
2022-09-23T19:39:02.859Z,85.74
2022-09-23T19:41:35.283Z,85.72
2022-09-23T19:44:03.210Z,85.94
2022-09-23T19:46:31.051Z,86.32
2022-09-23T19:48:58.312Z,86.64
2022-09-23T19:51:24.679Z,86.95
2022-09-23T19:53:51.692Z,85.96
2022-09-23T19:56:18.267Z,87.10
2022-09-23T19:58:54.629Z,86.77
2022-09-23T20:01:29.217Z,86.56
2022-09-23T20:03:56.318Z,86.46
2022-09-23T20:06:23.194Z,85.98
2022-09-23T20:08:49.940Z,86.49
2022-09-23T20:11:26.190Z,87.09
2022-09-23T20:14:01.659Z,87.03
2022-09-23T20:16:31.959Z,87.06
2022-09-23T20:18:59.840Z,86.81
2022-09-23T20:21:28.081Z,87.12
2022-09-23T20:23:54.408Z,86.91
2022-09-23T20:26:39.606Z,87.17
2022-09-23T20:29:05.892Z,87.23
2022-09-23T20:31:34.309Z,87.30
2022-09-23T20:34:05.872Z,86.77
2022-09-23T20:36:33.036Z,86.42
2022-09-23T20:39:01.544Z,86.96
2022-09-23T20:41:30.535Z,87.43
2022-09-23T20:43:59.339Z,87.12
2022-09-23T20:46:26.611Z,86.45
2022-09-23T20:48:54.448Z,87.60
2022-09-23T20:51:20.950Z,87.37
2022-09-23T20:53:52.605Z,87.66
2022-09-23T20:56:23.610Z,87.18
2022-09-23T20:58:52.048Z,86.89
2022-09-23T21:01:19.256Z,87.04
2022-09-23T21:03:49.015Z,86.40
2022-09-23T21:06:17.230Z,85.83
2022-09-23T21:08:44.520Z,87.41
2022-09-23T21:11:16.818Z,87.77
2022-09-23T21:13:48.203Z,88.01
2022-09-23T21:16:17.351Z,88.12
2022-09-23T21:18:44.990Z,87.15
2022-09-23T21:21:13.946Z,86.98
2022-09-23T21:23:42.266Z,87.22
2022-09-23T21:26:15.201Z,87.43
2022-09-23T21:28:43.262Z,87.44
2022-09-23T21:31:23.083Z,87.43
2022-09-23T21:33:56.686Z,87.84
2022-09-23T21:36:24.979Z,88.02
2022-09-23T21:38:52.322Z,87.42
2022-09-23T21:41:19.306Z,87.25
2022-09-23T21:43:46.146Z,86.88
2022-09-23T21:46:14.761Z,87.08
2022-09-23T21:48:42.439Z,86.74
2022-09-23T21:51:14.548Z,86.89
2022-09-23T21:53:45.069Z,87.35
2022-09-23T21:56:21.205Z,87.66
2022-09-23T21:58:49.212Z,87.87
2022-09-23T22:01:19.543Z,88.09
2022-09-23T22:03:52.336Z,88.21
2022-09-23T22:06:22.635Z,87.98
2022-09-23T22:08:51.466Z,87.78
2022-09-23T22:11:39.529Z,87.64
2022-09-23T22:14:09.394Z,88.16
2022-09-23T22:16:36.731Z,88.10
2022-09-23T22:19:06.789Z,88.45
2022-09-23T22:21:35.450Z,88.11
2022-09-23T22:24:03.062Z,88.39
2022-09-23T22:26:33.079Z,88.02
2022-09-23T22:29:18.440Z,87.63
2022-09-23T22:32:08.712Z,87.54
2022-09-23T22:34:49.675Z,87.69
2022-09-23T22:37:26.310Z,88.02
2022-09-23T22:39:53.736Z,88.96
2022-09-23T22:42:23.600Z,89.05
2022-09-23T22:44:50.502Z,88.88
2022-09-23T22:47:18.171Z,88.03
2022-09-23T22:49:46.114Z,88.61
2022-09-23T22:52:13.856Z,88.32
2022-09-23T22:54:40.295Z,87.23
2022-09-23T22:57:08.566Z,87.40
2022-09-23T22:59:37.158Z,87.48
2022-09-23T23:02:04.183Z,88.27
2022-09-23T23:04:31.199Z,89.11
2022-09-23T23:06:58.572Z,88.93
2022-09-23T23:09:24.944Z,89.17
2022-09-23T23:11:51.674Z,89.05
2022-09-23T23:14:18.503Z,88.45
2022-09-23T23:16:45.948Z,88.18
2022-09-23T23:19:16.699Z,88.74
2022-09-23T23:21:44.408Z,88.23
2022-09-23T23:24:17.091Z,87.51
2022-09-23T23:26:44.016Z,87.18
2022-09-23T23:29:12.280Z,87.36
2022-09-23T23:31:39.406Z,87.63
2022-09-23T23:34:08.216Z,87.55
2022-09-23T23:36:34.638Z,87.61
2022-09-23T23:39:01.479Z,87.41
2022-09-23T23:41:28.734Z,87.06
2022-09-23T23:43:59.349Z,86.91
2022-09-23T23:46:28.210Z,87.24
2022-09-23T23:48:55.979Z,87.52
2022-09-23T23:51:23.317Z,87.67
2022-09-23T23:53:49.775Z,87.74
2022-09-23T23:56:19.996Z,87.69
2022-09-23T23:58:46.890Z,87.91
